Time;durP1;ratioP1;P1;durP2;ratioP2;P2;SDS_P1;SDS_P2;PMS_P1;PMS_P2;Temp;Humidity;BMP_temperature;BMP_pressure;BME280_temperature;BME280_humidity;BME280_pressure;Samples;Min_cycle;Max_cycle;Signal;HPM_P1;HPM_P2
2023/09/26 00:02:03;;;;;;;8.93;5.33;;;17.00;89.00;;;;;;5076036;28;20120;-75
2023/09/26 00:04:30;;;;;;;7.25;4.90;;;16.90;89.30;;;;;;5058147;28;20682;-76
2023/09/26 00:06:57;;;;;;;8.23;5.50;;;16.60;89.20;;;;;;5058122;28;20031;-75
2023/09/26 00:09:23;;;;;;;5.97;5.07;;;16.50;89.90;;;;;;5041839;28;20036;-75
2023/09/26 00:11:48;;;;;;;6.32;5.15;;;16.50;90.10;;;;;;5041382;28;20025;-75
2023/09/26 00:14:15;;;;;;;7.05;5.18;;;16.60;90.10;;;;;;5041363;28;20033;-75
2023/09/26 00:16:40;;;;;;;10.02;5.43;;;16.60;90.00;;;;;;5058101;28;20039;-75
2023/09/26 00:19:07;;;;;;;8.88;5.65;;;16.60;89.90;;;;;;5057842;28;20025;-75
2023/09/26 00:21:33;;;;;;;8.38;5.65;;;16.70;89.70;;;;;;5058095;28;20021;-76
2023/09/26 00:23:58;;;;;;;6.80;5.60;;;16.70;89.60;;;;;;5057869;28;20036;-75
2023/09/26 00:26:25;;;;;;;12.25;5.72;;;16.60;89.70;;;;;;5057672;28;20025;-75
2023/09/26 00:28:51;;;;;;;7.20;5.40;;;16.60;89.80;;;;;;5041419;28;20019;-75
2023/09/26 00:31:17;;;;;;;7.30;6.10;;;16.60;89.80;;;;;;5041092;28;20051;-76
2023/09/26 00:33:43;;;;;;;6.13;5.28;;;16.60;89.80;;;;;;5040889;28;20032;-75
2023/09/26 00:36:10;;;;;;;6.50;4.88;;;16.60;89.70;;;;;;5040934;28;20017;-76
2023/09/26 00:38:36;;;;;;;9.35;5.22;;;16.60;89.60;;;;;;5075142;28;20017;-75
2023/09/26 00:41:02;;;;;;;5.70;4.50;;;16.70;89.50;;;;;;5057395;28;20024;-76
2023/09/26 00:43:28;;;;;;;7.38;4.80;;;16.70;89.30;;;;;;5040848;28;20040;-76
2023/09/26 00:45:59;;;;;;;7.40;4.75;;;16.70;89.20;;;;;;5057511;28;20033;-75
2023/09/26 00:48:25;;;;;;;8.02;4.97;;;16.60;89.10;;;;;;5057226;28;20028;-75
2023/09/26 00:50:52;;;;;;;6.25;4.22;;;16.60;89.10;;;;;;5057332;28;20040;-75
2023/09/26 00:53:19;;;;;;;9.43;5.00;;;16.50;90.00;;;;;;5040551;28;20025;-75
2023/09/26 00:55:45;;;;;;;6.20;4.47;;;16.50;89.30;;;;;;5074648;28;20041;-75
2023/09/26 00:58:13;;;;;;;6.30;4.80;;;16.50;89.30;;;;;;5056241;28;20039;-76
2023/09/26 01:00:40;;;;;;;6.40;5.00;;;16.50;89.30;;;;;;5057096;28;20021;-75
2023/09/26 01:03:07;;;;;;;7.68;5.35;;;16.50;89.20;;;;;;5057002;28;20025;-76
2023/09/26 01:05:35;;;;;;;7.47;5.65;;;16.40;89.20;;;;;;5040658;28;20037;-75
2023/09/26 01:08:00;;;;;;;8.43;5.10;;;16.40;89.40;;;;;;5074567;28;20035;-75
2023/09/26 01:10:26;;;;;;;9.68;5.65;;;16.40;89.70;;;;;;5056936;28;20033;-75
2023/09/26 01:12:52;;;;;;;7.43;5.40;;;16.40;89.70;;;;;;5074439;28;20033;-76
2023/09/26 01:15:50;;;;;;;7.50;6.05;;;16.30;89.70;;;;;;5056860;28;20040;-76
2023/09/26 01:18:17;;;;;;;9.00;5.95;;;16.30;89.70;;;;;;4997564;28;20029;-76
2023/09/26 01:20:45;;;;;;;8.38;5.80;;;16.30;90.00;;;;;;5074279;28;20030;-75
2023/09/26 01:23:14;;;;;;;8.38;5.53;;;16.20;90.00;;;;;;5056624;28;20037;-76
2023/09/26 01:25:40;;;;;;;6.55;5.15;;;16.20;90.00;;;;;;5056504;28;20021;-76
2023/09/26 01:28:07;;;;;;;7.32;5.75;;;16.20;90.00;;;;;;5056762;28;20060;-76
2023/09/26 01:30:34;;;;;;;7.40;5.50;;;16.20;90.10;;;;;;5056382;28;20040;-75
2023/09/26 01:33:00;;;;;;;7.70;5.57;;;16.20;90.00;;;;;;5056493;28;20365;-75
2023/09/26 01:35:26;;;;;;;7.90;5.15;;;16.30;90.00;;;;;;5056414;28;20032;-75
2023/09/26 01:37:52;;;;;;;8.80;5.60;;;16.20;89.70;;;;;;5056493;28;20032;-75
2023/09/26 01:40:17;;;;;;;8.27;5.82;;;16.00;90.00;;;;;;5039846;28;20097;-75
2023/09/26 01:42:43;;;;;;;8.57;5.75;;;16.00;90.20;;;;;;5056315;28;20037;-75
2023/09/26 01:45:10;;;;;;;10.65;6.10;;;16.00;90.30;;;;;;5073845;28;20033;-75
2023/09/26 01:47:57;;;;;;;8.95;5.60;;;16.10;90.30;;;;;;5039787;28;20626;-75
2023/09/26 01:50:23;;;;;;;8.45;5.95;;;16.10;90.20;;;;;;5056109;28;20104;-76
2023/09/26 01:52:49;;;;;;;9.48;6.03;;;16.10;90.30;;;;;;5073829;28;20055;-76
2023/09/26 01:55:19;;;;;;;8.57;5.68;;;16.00;90.20;;;;;;5039538;28;20109;-76
2023/09/26 01:57:45;;;;;;;7.65;5.93;;;16.00;90.30;;;;;;5056171;28;20056;-75
2023/09/26 02:00:11;;;;;;;10.90;6.30;;;16.00;90.30;;;;;;5073554;28;20021;-75
2023/09/26 02:02:45;;;;;;;9.18;6.15;;;16.10;90.20;;;;;;5056255;28;20029;-76
2023/09/26 02:05:13;;;;;;;11.80;6.10;;;16.10;90.10;;;;;;5073414;28;20021;-76
2023/09/26 02:07:39;;;;;;;9.50;5.88;;;16.10;90.10;;;;;;5055816;28;20028;-75
2023/09/26 02:10:05;;;;;;;8.95;5.57;;;16.10;90.10;;;;;;5073152;28;20029;-76
2023/09/26 02:12:33;;;;;;;9.90;6.15;;;16.10;90.00;;;;;;5055694;28;20089;-75
2023/09/26 02:15:01;;;;;;;10.38;5.72;;;16.10;90.00;;;;;;5073334;28;20043;-75
2023/09/26 02:17:26;;;;;;;9.05;5.75;;;16.00;90.10;;;;;;5039552;28;20018;-76
2023/09/26 02:19:52;;;;;;;9.70;6.20;;;16.00;90.10;;;;;;5039176;28;20116;-75
2023/09/26 02:22:18;;;;;;;8.40;5.22;;;16.00;90.20;;;;;;5055645;28;20033;-75
2023/09/26 02:24:43;;;;;;;7.60;5.65;;;15.90;90.20;;;;;;5055570;28;20033;-75
2023/09/26 02:27:10;;;;;;;7.80;5.70;;;16.00;90.10;;;;;;5055913;28;20025;-75
2023/09/26 02:29:35;;;;;;;9.48;5.63;;;16.00;90.10;;;;;;5039176;28;20088;-75
2023/09/26 02:32:01;;;;;;;10.77;6.35;;;16.00;90.10;;;;;;5055519;28;20021;-75
2023/09/26 02:34:27;;;;;;;11.57;6.15;;;16.00;90.10;;;;;;5055380;28;20033;-76
2023/09/26 02:36:52;;;;;;;11.77;6.20;;;15.90;90.10;;;;;;5055643;28;20028;-75
2023/09/26 02:39:18;;;;;;;8.60;5.70;;;15.90;90.30;;;;;;5073054;28;20032;-76
2023/09/26 02:41:43;;;;;;;8.27;5.88;;;15.80;90.30;;;;;;5039009;28;20047;-75
2023/09/26 02:44:10;;;;;;;7.45;5.68;;;15.80;90.40;;;;;;5055446;28;20032;-76
2023/09/26 02:46:35;;;;;;;8.65;6.15;;;15.80;90.40;;;;;;5073074;28;20106;-75
2023/09/26 02:49:01;;;;;;;12.68;6.22;;;15.80;90.40;;;;;;5038804;28;20017;-75
2023/09/26 02:51:27;;;;;;;11.13;6.72;;;15.70;90.40;;;;;;5038980;28;20499;-76
2023/09/26 02:53:53;;;;;;;9.00;6.28;;;15.70;90.50;;;;;;5055541;28;20037;-76
2023/09/26 02:56:18;;;;;;;10.20;5.78;;;15.70;90.50;;;;;;5038618;28;20065;-76
2023/09/26 02:58:44;;;;;;;9.00;5.90;;;15.60;90.50;;;;;;5038747;28;20060;-76
2023/09/26 03:01:15;;;;;;;8.60;5.70;;;15.60;90.50;;;;;;5055346;28;20053;-75
2023/09/26 03:03:41;;;;;;;7.60;5.43;;;15.70;90.50;;;;;;5055196;28;20071;-76
2023/09/26 03:06:07;;;;;;;8.60;5.72;;;15.70;90.40;;;;;;5038690;28;20049;-75
2023/09/26 03:08:33;;;;;;;9.30;5.88;;;15.70;90.40;;;;;;5055141;28;20472;-75
2023/09/26 03:11:02;;;;;;;7.18;5.15;;;15.70;90.40;;;;;;5055367;28;20488;-75
2023/09/26 03:13:32;;;;;;;7.00;4.80;;;15.70;90.30;;;;;;5055250;28;20026;-75
2023/09/26 03:15:58;;;;;;;8.85;5.47;;;15.70;90.20;;;;;;5056057;28;20053;-75
2023/09/26 03:18:25;;;;;;;8.25;5.97;;;15.70;90.20;;;;;;5038575;28;20021;-74
2023/09/26 03:20:50;;;;;;;9.13;5.28;;;15.60;90.30;;;;;;5072866;28;20025;-76
2023/09/26 03:23:16;;;;;;;7.03;4.93;;;15.50;90.40;;;;;;5041743;28;20092;-75
2023/09/26 03:25:41;;;;;;;8.60;5.88;;;15.40;90.60;;;;;;5058825;28;20491;-75
2023/09/26 03:28:09;;;;;;;9.23;5.45;;;15.50;90.70;;;;;;5058874;28;20025;-75
2023/09/26 03:30:35;;;;;;;8.80;5.90;;;15.50;90.60;;;;;;5058801;28;20086;-75
2023/09/26 03:33:00;;;;;;;8.50;5.88;;;15.50;90.90;;;;;;5076339;28;20021;-75
2023/09/26 03:35:26;;;;;;;8.95;5.78;;;15.50;90.60;;;;;;5042130;28;20021;-75
2023/09/26 03:37:52;;;;;;;11.35;6.65;;;15.40;90.60;;;;;;5058732;28;20404;-76
2023/09/26 03:40:17;;;;;;;7.03;5.70;;;15.40;90.80;;;;;;5058582;28;20486;-76
2023/09/26 03:42:43;;;;;;;7.97;5.82;;;15.40;90.80;;;;;;5042015;28;20036;-75
2023/09/26 03:45:09;;;;;;;7.50;5.90;;;15.40;90.80;;;;;;5042009;28;20055;-76
2023/09/26 03:47:35;;;;;;;9.18;6.15;;;15.40;90.80;;;;;;5041985;28;20039;-75
2023/09/26 03:50:00;;;;;;;9.10;6.05;;;15.40;90.80;;;;;;5058650;28;20435;-76
2023/09/26 03:52:26;;;;;;;8.25;5.72;;;15.40;90.70;;;;;;5041721;28;20025;-75
2023/09/26 03:54:51;;;;;;;8.60;5.72;;;15.40;90.80;;;;;;5041895;28;20052;-75
2023/09/26 03:57:17;;;;;;;9.85;5.97;;;15.40;90.80;;;;;;5075811;28;20049;-76
2023/09/26 03:59:48;;;;;;;10.95;5.82;;;15.40;90.70;;;;;;5058376;28;20052;-76
2023/09/26 04:02:14;;;;;;;7.72;5.60;;;15.30;90.70;;;;;;5058186;28;20036;-75
2023/09/26 04:04:39;;;;;;;8.30;5.32;;;15.30;90.80;;;;;;5041551;28;20029;-76
2023/09/26 04:07:06;;;;;;;8.32;5.75;;;15.30;90.80;;;;;;5041521;28;20017;-76
2023/09/26 04:09:33;;;;;;;8.02;5.78;;;15.30;91.20;;;;;;5058352;28;20032;-75
2023/09/26 04:11:59;;;;;;;8.50;6.07;;;15.30;90.70;;;;;;5057964;28;20044;-75
2023/09/26 04:14:25;;;;;;;7.05;5.50;;;15.30;90.70;;;;;;5057871;28;20055;-75
2023/09/26 04:16:51;;;;;;;8.05;5.82;;;15.30;90.70;;;;;;5057854;28;20089;-76
2023/09/26 04:19:17;;;;;;;8.65;6.07;;;15.30;90.70;;;;;;5057989;28;20029;-76
2023/09/26 04:21:43;;;;;;;11.73;6.65;;;15.40;90.80;;;;;;5041236;28;20028;-75
2023/09/26 04:24:08;;;;;;;9.38;5.82;;;15.40;90.80;;;;;;5057892;28;20014;-76
2023/09/26 04:26:34;;;;;;;7.95;6.05;;;15.30;90.90;;;;;;5057717;28;20037;-77
2023/09/26 04:29:00;;;;;;;9.52;6.57;;;15.30;90.90;;;;;;5057827;28;20076;-75
2023/09/26 04:31:26;;;;;;;10.32;6.22;;;15.30;90.90;;;;;;5057632;28;20029;-76
2023/09/26 04:33:51;;;;;;;7.68;5.07;;;15.30;90.80;;;;;;5074964;28;20036;-75
2023/09/26 04:36:17;;;;;;;10.45;5.80;;;15.30;90.80;;;;;;5057700;28;20032;-75
2023/09/26 04:38:43;;;;;;;7.15;5.38;;;15.20;90.90;;;;;;5040936;28;20037;-75
2023/09/26 04:41:10;;;;;;;9.10;5.72;;;15.20;90.90;;;;;;5057713;28;20076;-76
2023/09/26 04:43:36;;;;;;;8.98;6.57;;;15.20;90.90;;;;;;5075050;28;20097;-75
2023/09/26 04:46:08;;;;;;;10.13;6.30;;;15.20;91.00;;;;;;5074987;28;20025;-76
2023/09/26 04:48:34;;;;;;;10.85;5.70;;;15.20;90.90;;;;;;5041710;28;20025;-76
2023/09/26 04:50:59;;;;;;;10.02;5.85;;;15.20;90.90;;;;;;5040718;28;20036;-75
2023/09/26 04:53:25;;;;;;;7.53;5.47;;;15.10;91.00;;;;;;5040633;28;20037;-75
2023/09/26 04:55:51;;;;;;;12.45;6.13;;;15.20;91.00;;;;;;5040394;28;20049;-75
2023/09/26 04:58:17;;;;;;;10.18;6.20;;;15.20;91.00;;;;;;5074843;28;20042;-76
2023/09/26 05:00:42;;;;;;;9.48;6.50;;;15.10;91.20;;;;;;5057127;28;20024;-75
2023/09/26 05:03:08;;;;;;;10.45;6.47;;;15.00;91.40;;;;;;5074676;28;20048;-76
2023/09/26 05:05:33;;;;;;;10.25;6.43;;;14.90;91.60;;;;;;5056978;28;20033;-75
2023/09/26 05:07:59;;;;;;;10.07;6.20;;;14.90;91.80;;;;;;5056973;28;20036;-75
2023/09/26 05:10:25;;;;;;;10.27;6.07;;;14.90;91.90;;;;;;5040344;28;20017;-75
2023/09/26 05:12:50;;;;;;;10.20;6.38;;;14.90;91.80;;;;;;5074415;28;20040;-76
2023/09/26 05:15:17;;;;;;;9.45;6.10;;;14.90;91.70;;;;;;5056980;28;20021;-75
2023/09/26 05:17:47;;;;;;;10.20;6.55;;;15.00;92.00;;;;;;5056745;28;20036;-75
2023/09/26 05:20:14;;;;;;;10.43;6.38;;;14.90;91.70;;;;;;5074337;28;20055;-76
2023/09/26 05:22:41;;;;;;;9.95;6.50;;;14.90;92.20;;;;;;5056882;28;20043;-75
2023/09/26 05:25:07;;;;;;;11.60;6.88;;;14.90;92.00;;;;;;5040005;28;20021;-76
2023/09/26 05:27:33;;;;;;;10.43;6.43;;;14.80;92.00;;;;;;5056554;28;20040;-75
2023/09/26 05:29:59;;;;;;;9.45;6.20;;;14.80;92.10;;;;;;5056508;28;20420;-75
2023/09/26 05:32:25;;;;;;;9.93;6.55;;;14.80;92.10;;;;;;5056411;28;20049;-75
2023/09/26 05:34:50;;;;;;;9.73;5.97;;;14.80;92.20;;;;;;5039938;28;20083;-76
2023/09/26 05:37:16;;;;;;;9.20;6.70;;;14.70;92.20;;;;;;5040043;28;20067;-76
2023/09/26 05:39:42;;;;;;;12.27;6.95;;;14.80;92.30;;;;;;5039841;28;20052;-75
2023/09/26 05:42:10;;;;;;;12.73;6.43;;;14.80;92.20;;;;;;5040054;28;20081;-75
2023/09/26 05:44:36;;;;;;;10.02;5.63;;;14.80;92.20;;;;;;5073525;28;20059;-75
2023/09/26 05:47:03;;;;;;;11.60;6.38;;;14.80;92.20;;;;;;5056325;28;20025;-75
2023/09/26 05:49:29;;;;;;;9.40;6.47;;;14.90;92.20;;;;;;5056116;28;20029;-75
2023/09/26 05:51:55;;;;;;;12.30;5.85;;;14.90;92.10;;;;;;5056264;28;20033;-76
2023/09/26 05:54:20;;;;;;;10.32;5.45;;;14.90;92.10;;;;;;5056187;28;20044;-76
2023/09/26 05:56:46;;;;;;;9.02;6.30;;;14.90;92.10;;;;;;5055926;28;20053;-76
2023/09/26 05:59:12;;;;;;;8.90;6.20;;;15.00;92.10;;;;;;5056086;28;20040;-76
2023/09/26 06:01:37;;;;;;;9.15;6.20;;;15.00;92.10;;;;;;5055998;28;20092;-77
2023/09/26 06:04:03;;;;;;;10.25;6.20;;;14.90;92.20;;;;;;5056207;28;20033;-76
2023/09/26 06:06:29;;;;;;;7.93;6.25;;;15.00;92.20;;;;;;5055989;28;20025;-76
2023/09/26 06:08:54;;;;;;;10.43;6.90;;;15.00;92.20;;;;;;5039514;28;20067;-76
2023/09/26 06:11:20;;;;;;;9.88;6.82;;;14.90;92.20;;;;;;5039273;28;20033;-76
2023/09/26 06:13:47;;;;;;;10.30;6.75;;;14.90;92.30;;;;;;5055794;28;20040;-76
2023/09/26 06:16:13;;;;;;;12.05;6.40;;;14.90;92.40;;;;;;5039345;28;20025;-76
2023/09/26 06:18:38;;;;;;;9.60;6.70;;;14.90;92.40;;;;;;5039164;28;20021;-75
2023/09/26 06:21:06;;;;;;;9.90;6.32;;;15.00;92.40;;;;;;5039172;28;20037;-76
2023/09/26 06:23:32;;;;;;;9.07;6.20;;;15.00;92.70;;;;;;5055652;28;20032;-76
2023/09/26 06:25:59;;;;;;;12.07;7.03;;;15.00;92.40;;;;;;5039114;28;20029;-76
2023/09/26 06:28:24;;;;;;;9.77;7.20;;;15.00;92.50;;;;;;5073208;28;20052;-76
2023/09/26 06:30:50;;;;;;;10.90;6.43;;;15.00;92.40;;;;;;5055666;28;20025;-76
2023/09/26 06:33:16;;;;;;;11.52;7.57;;;15.10;92.50;;;;;;5055461;28;20036;-75
2023/09/26 06:35:42;;;;;;;11.77;6.88;;;15.10;92.60;;;;;;5073084;28;20052;-75
2023/09/26 06:38:07;;;;;;;12.40;7.57;;;15.00;92.70;;;;;;5055479;28;20040;-76
2023/09/26 06:40:33;;;;;;;13.65;7.32;;;15.00;92.80;;;;;;5055609;28;20048;-76
2023/09/26 06:43:00;;;;;;;12.57;7.07;;;15.00;93.30;;;;;;5073093;28;20105;-76
2023/09/26 06:45:30;;;;;;;12.50;7.68;;;15.00;92.90;;;;;;5055330;28;20093;-76
2023/09/26 06:47:56;;;;;;;10.77;7.18;;;15.00;92.90;;;;;;5055362;28;20051;-76
2023/09/26 06:50:22;;;;;;;10.93;7.07;;;15.10;93.00;;;;;;5055244;28;20097;-76
2023/09/26 06:52:48;;;;;;;11.05;6.68;;;15.20;93.00;;;;;;5055300;28;20032;-76
2023/09/26 06:55:14;;;;;;;11.10;7.40;;;15.20;92.90;;;;;;5038663;28;20052;-76
2023/09/26 06:57:40;;;;;;;11.95;7.40;;;15.20;92.90;;;;;;5057790;28;20045;-76
2023/09/26 07:00:12;;;;;;;14.40;8.10;;;15.20;92.90;;;;;;5042931;28;20040;-76
2023/09/26 07:02:39;;;;;;;10.93;7.35;;;15.20;92.90;;;;;;5043645;28;20029;-76
2023/09/26 07:05:07;;;;;;;9.88;7.20;;;15.20;93.00;;;;;;5059313;28;20029;-75
2023/09/26 07:07:33;;;;;;;10.45;7.03;;;15.20;93.00;;;;;;5059354;28;20029;-75
2023/09/26 07:09:58;;;;;;;9.52;6.63;;;15.30;93.20;;;;;;5059148;28;20120;-76
2023/09/26 07:12:26;;;;;;;11.85;7.35;;;15.30;93.10;;;;;;5059105;28;20029;-75
2023/09/26 07:14:52;;;;;;;14.32;7.70;;;15.30;93.10;;;;;;5076744;28;20084;-76
2023/09/26 07:17:18;;;;;;;15.95;7.82;;;15.30;93.10;;;;;;5058955;28;20041;-76
2023/09/26 07:19:44;;;;;;;10.07;7.38;;;15.40;93.20;;;;;;5058979;28;20024;-76
2023/09/26 07:22:10;;;;;;;10.38;7.03;;;15.40;93.10;;;;;;5042517;28;20079;-76
2023/09/26 07:24:36;;;;;;;11.18;6.90;;;15.50;93.20;;;;;;5059008;28;20040;-75
2023/09/26 07:27:02;;;;;;;10.18;6.75;;;15.50;93.20;;;;;;5076509;28;20018;-75
2023/09/26 07:29:27;;;;;;;12.05;7.57;;;15.60;93.20;;;;;;5076436;28;20492;-76
2023/09/26 07:31:54;;;;;;;9.93;7.32;;;15.70;93.10;;;;;;5058810;28;20032;-76
2023/09/26 07:34:20;;;;;;;11.10;7.07;;;15.70;93.10;;;;;;5058623;28;20028;-76
2023/09/26 07:36:46;;;;;;;11.80;7.18;;;15.80;93.40;;;;;;5058627;28;20047;-76
2023/09/26 07:39:14;;;;;;;10.82;7.80;;;15.80;93.10;;;;;;5076420;28;20017;-76
2023/09/26 07:41:40;;;;;;;12.02;7.57;;;15.90;93.10;;;;;;5042359;28;20025;-75
2023/09/26 07:44:06;;;;;;;9.65;7.72;;;15.80;93.30;;;;;;5076318;28;20021;-75
2023/09/26 07:46:31;;;;;;;15.23;8.25;;;15.90;93.10;;;;;;5042010;28;20025;-75
2023/09/26 07:48:57;;;;;;;11.38;8.23;;;15.90;93.10;;;;;;5058403;28;20120;-75
2023/09/26 07:51:23;;;;;;;11.68;7.88;;;15.90;93.20;;;;;;5058471;28;20028;-75
2023/09/26 07:53:48;;;;;;;12.25;8.38;;;16.00;93.30;;;;;;5075989;28;20033;-76
2023/09/26 07:56:14;;;;;;;9.07;7.25;;;16.00;93.50;;;;;;5058135;28;20045;-76
2023/09/26 07:58:39;;;;;;;12.00;8.68;;;16.00;93.30;;;;;;5058252;28;20040;-75
2023/09/26 08:01:09;;;;;;;12.73;8.10;;;16.10;93.30;;;;;;5058263;28;20021;-76
2023/09/26 08:03:35;;;;;;;12.73;7.65;;;16.20;93.00;;;;;;5058126;28;20040;-76
2023/09/26 08:06:06;;;;;;;10.85;7.53;;;16.30;93.30;;;;;;5041678;28;20025;-75
2023/09/26 08:08:32;;;;;;;9.00;7.35;;;16.30;93.30;;;;;;5075288;28;20025;-75
2023/09/26 08:11:11;;;;;;;11.18;7.93;;;16.40;93.30;;;;;;5058197;28;20036;-76
2023/09/26 08:13:38;;;;;;;13.15;8.13;;;16.50;93.20;;;;;;5057917;28;20029;-75
2023/09/26 08:16:04;;;;;;;12.10;7.65;;;16.60;93.40;;;;;;5075598;28;20029;-76
2023/09/26 08:18:30;;;;;;;12.80;8.45;;;16.60;92.90;;;;;;5058099;28;20024;-76
2023/09/26 08:20:57;;;;;;;11.57;8.18;;;16.70;92.90;;;;;;5057826;28;20025;-76
2023/09/26 08:23:24;;;;;;;11.05;7.97;;;16.70;93.10;;;;;;5041594;28;20043;-75
2023/09/26 08:25:58;;;;;;;12.60;8.93;;;16.80;93.00;;;;;;5075379;28;20028;-76
2023/09/26 08:28:25;;;;;;;13.32;8.52;;;16.90;93.00;;;;;;5057809;28;20100;-75
2023/09/26 08:30:56;;;;;;;11.70;8.15;;;17.00;92.90;;;;;;5057631;28;20025;-76
2023/09/26 08:33:26;;;;;;;13.82;8.73;;;17.10;92.70;;;;;;5057614;28;20021;-76
2023/09/26 08:35:52;;;;;;;11.45;8.38;;;17.10;92.40;;;;;;5057803;28;20052;-75
2023/09/26 08:38:18;;;;;;;11.48;8.13;;;17.10;92.30;;;;;;5075180;28;20017;-75
2023/09/26 08:40:44;;;;;;;13.45;8.60;;;17.20;92.40;;;;;;5057501;28;20029;-76
2023/09/26 08:43:14;;;;;;;14.63;8.15;;;17.20;92.40;;;;;;5057467;28;20027;-75
2023/09/26 08:45:40;;;;;;;13.85;8.35;;;17.30;92.30;;;;;;5075054;28;20055;-75
2023/09/26 08:48:06;;;;;;;14.35;8.65;;;17.40;92.30;;;;;;5075005;28;20032;-75
2023/09/26 08:50:32;;;;;;;10.00;7.63;;;17.50;92.30;;;;;;5040708;28;20025;-76
2023/09/26 08:52:59;;;;;;;14.23;7.78;;;17.50;91.80;;;;;;5057175;28;20036;-75
2023/09/26 08:55:28;;;;;;;10.93;7.95;;;17.60;91.80;;;;;;5057194;28;20036;-76
2023/09/26 08:57:55;;;;;;;12.13;9.25;;;17.70;91.90;;;;;;5057116;28;20049;-75
2023/09/26 09:00:22;;;;;;;13.27;8.38;;;17.70;92.00;;;;;;5057176;28;20025;-76
2023/09/26 09:02:48;;;;;;;14.70;8.50;;;17.90;92.00;;;;;;5040580;28;20059;-76
2023/09/26 09:05:19;;;;;;;10.85;7.63;;;17.90;92.10;;;;;;5057128;28;20052;-76
2023/09/26 09:07:45;;;;;;;14.10;7.88;;;18.00;91.30;;;;;;5040509;28;20029;-76
2023/09/26 09:10:12;;;;;;;12.43;8.30;;;18.00;91.10;;;;;;5074752;28;20136;-76
2023/09/26 09:12:40;;;;;;;11.45;8.50;;;18.10;91.10;;;;;;5074449;28;20048;-76
2023/09/26 09:15:15;;;;;;;11.88;8.90;;;18.20;91.00;;;;;;5074432;28;20017;-75
2023/09/26 09:17:45;;;;;;;13.27;8.10;;;18.30;91.30;;;;;;5056667;28;20025;-75
2023/09/26 09:20:18;;;;;;;12.80;8.57;;;18.40;90.90;;;;;;5039377;28;20018;-76
2023/09/26 09:22:48;;;;;;;10.82;7.95;;;18.40;91.30;;;;;;5041156;28;20056;-75
2023/09/26 09:25:13;;;;;;;11.95;8.48;;;18.60;91.20;;;;;;5057233;28;20029;-76
2023/09/26 09:27:43;;;;;;;10.80;7.85;;;18.70;91.30;;;;;;5040146;28;20052;-75
2023/09/26 09:30:19;;;;;;;10.48;8.02;;;18.80;91.20;;;;;;5057153;28;20025;-76
2023/09/26 09:32:45;;;;;;;9.45;7.15;;;19.00;91.20;;;;;;5057615;28;20033;-76
2023/09/26 09:35:13;;;;;;;11.55;7.78;;;19.20;90.50;;;;;;5056452;28;20036;-75
2023/09/26 09:37:41;;;;;;;10.30;6.53;;;19.30;90.20;;;;;;5056369;28;20091;-76
2023/09/26 09:40:08;;;;;;;9.25;6.32;;;19.40;89.10;;;;;;5056425;28;20021;-76
2023/09/26 09:42:36;;;;;;;9.68;6.07;;;19.50;87.70;;;;;;5073946;28;20108;-76
2023/09/26 09:45:04;;;;;;;6.95;5.38;;;19.60;88.70;;;;;;5073916;28;20029;-76
2023/09/26 09:47:34;;;;;;;8.60;5.50;;;19.60;88.90;;;;;;5056170;28;20044;-76
2023/09/26 09:50:01;;;;;;;8.27;5.43;;;19.70;88.70;;;;;;5073815;28;20017;-76
2023/09/26 09:52:30;;;;;;;10.32;6.00;;;19.80;87.50;;;;;;5056223;28;20025;-76
2023/09/26 09:54:57;;;;;;;9.02;6.05;;;19.90;86.90;;;;;;5073759;28;20032;-76
2023/09/26 09:57:26;;;;;;;7.57;5.90;;;19.90;87.60;;;;;;5073397;28;20049;-76
2023/09/26 09:59:53;;;;;;;13.30;6.93;;;20.00;87.40;;;;;;5055943;28;20025;-76
2023/09/26 10:02:21;;;;;;;7.28;5.75;;;20.10;87.10;;;;;;5039563;28;20036;-75
2023/09/26 10:04:48;;;;;;;7.00;5.18;;;20.20;87.60;;;;;;5039668;28;20035;-75
2023/09/26 10:07:17;;;;;;;12.15;6.68;;;20.20;87.20;;;;;;5056049;28;20044;-76
2023/09/26 10:09:44;;;;;;;8.00;5.88;;;20.30;86.70;;;;;;5039775;28;20068;-75
2023/09/26 10:12:11;;;;;;;8.95;5.50;;;20.40;87.30;;;;;;5039201;28;20048;-75
2023/09/26 10:14:37;;;;;;;6.97;4.88;;;20.50;86.90;;;;;;5055820;28;20025;-76
2023/09/26 10:17:06;;;;;;;6.68;4.85;;;20.60;86.30;;;;;;5039342;28;20096;-76
2023/09/26 10:19:33;;;;;;;6.78;4.50;;;20.70;85.50;;;;;;5055669;28;20052;-75
2023/09/26 10:22:18;;;;;;;7.72;4.85;;;20.80;85.60;;;;;;5055604;28;20082;-77
2023/09/26 10:24:52;;;;;;;7.63;4.90;;;20.80;84.80;;;;;;5055578;28;20029;-76
2023/09/26 10:27:38;;;;;;;5.88;4.43;;;20.90;84.90;;;;;;5073251;28;20094;-76
2023/09/26 10:30:06;;;;;;;7.45;4.25;;;20.80;83.10;;;;;;5073198;28;20029;-76
2023/09/26 10:32:34;;;;;;;6.88;4.35;;;20.90;83.50;;;;;;5038724;28;20049;-77
2023/09/26 10:35:22;;;;;;;8.40;4.72;;;20.90;83.70;;;;;;5039314;28;20031;-76
2023/09/26 10:38:18;;;;;;;6.68;4.97;;;20.90;84.40;;;;;;5073037;28;20025;-76
2023/09/26 10:40:47;;;;;;;8.48;5.20;;;20.90;82.50;;;;;;5071095;28;20508;-76
2023/09/26 10:43:16;;;;;;;10.23;5.00;;;20.90;83.10;;;;;;5038987;28;20018;-75
2023/09/26 10:45:44;;;;;;;7.10;4.63;;;20.90;83.60;;;;;;5038888;28;20036;-76
2023/09/26 10:48:10;;;;;;;7.90;4.47;;;21.00;84.20;;;;;;5055346;28;20025;-76
2023/09/26 10:50:36;;;;;;;7.00;4.30;;;21.00;83.80;;;;;;5038825;28;20021;-75
2023/09/26 10:53:01;;;;;;;5.85;4.05;;;21.00;83.10;;;;;;5072929;28;20084;-76
2023/09/26 10:55:27;;;;;;;8.20;4.97;;;21.00;82.60;;;;;;5055432;28;20055;-75
2023/09/26 10:57:53;;;;;;;6.50;4.68;;;21.10;82.30;;;;;;5055303;28;20060;-74
2023/09/26 11:00:19;;;;;;;6.38;4.93;;;21.00;82.70;;;;;;5055398;28;20041;-75
2023/09/26 11:02:50;;;;;;;7.45;5.68;;;21.00;83.30;;;;;;5055170;28;20084;-74
2023/09/26 11:05:16;;;;;;;7.53;5.40;;;20.90;82.90;;;;;;5072895;28;20029;-74
2023/09/26 11:07:44;;;;;;;8.75;5.50;;;20.90;82.20;;;;;;5072861;28;20105;-74
2023/09/26 11:10:14;;;;;;;8.95;5.22;;;20.90;82.50;;;;;;5072849;28;20033;-74
2023/09/26 11:12:40;;;;;;;8.35;5.55;;;20.90;81.40;;;;;;5072788;28;20029;-73
2023/09/26 11:15:07;;;;;;;8.52;5.15;;;20.90;80.90;;;;;;5055116;28;20021;-74
2023/09/26 11:17:36;;;;;;;5.65;3.92;;;21.00;81.20;;;;;;5055407;28;20040;-74
2023/09/26 11:20:06;;;;;;;7.68;4.38;;;21.00;80.90;;;;;;5055074;28;20017;-74
2023/09/26 11:22:52;;;;;;;6.05;4.18;;;21.10;79.80;;;;;;5054976;28;20047;-73
2023/09/26 11:25:18;;;;;;;4.70;3.55;;;21.10;79.80;;;;;;5038258;28;20072;-73
2023/09/26 11:27:47;;;;;;;6.57;3.80;;;21.10;79.20;;;;;;5072737;28;20029;-74
2023/09/26 11:30:17;;;;;;;5.95;4.32;;;21.10;79.30;;;;;;5055027;28;20060;-74
2023/09/26 11:32:50;;;;;;;6.05;4.00;;;21.10;79.20;;;;;;5054953;28;20024;-74
2023/09/26 11:35:16;;;;;;;7.35;4.53;;;21.10;78.60;;;;;;5054919;28;20103;-74
2023/09/26 11:37:43;;;;;;;6.50;4.47;;;21.20;78.70;;;;;;5055000;28;20017;-73
2023/09/26 11:40:11;;;;;;;6.60;4.45;;;21.20;78.80;;;;;;5054908;28;20020;-74
2023/09/26 11:42:47;;;;;;;5.57;3.97;;;21.30;78.70;;;;;;5055334;28;20039;-74
2023/09/26 11:45:24;;;;;;;6.88;4.57;;;21.30;79.30;;;;;;5076214;28;20104;-73
2023/09/26 11:47:52;;;;;;;6.55;4.60;;;21.30;79.60;;;;;;5058532;28;20058;-73
2023/09/26 11:50:18;;;;;;;9.00;4.80;;;21.20;78.90;;;;;;5058902;28;20032;-73
2023/09/26 11:52:44;;;;;;;5.93;4.70;;;21.10;77.60;;;;;;5058286;28;20585;-73
2023/09/26 11:55:17;;;;;;;5.78;3.88;;;21.20;78.90;;;;;;5058354;28;20017;-74
2023/09/26 11:57:43;;;;;;;7.00;4.68;;;21.20;79.80;;;;;;5058234;28;20049;-73
2023/09/26 12:00:15;;;;;;;7.78;4.40;;;21.20;79.80;;;;;;5058245;28;20022;-74
2023/09/26 12:02:43;;;;;;;8.32;4.55;;;21.20;78.40;;;;;;5058230;28;20029;-74
2023/09/26 12:05:10;;;;;;;7.07;4.82;;;21.30;79.70;;;;;;5058115;28;20021;-73
2023/09/26 12:07:36;;;;;;;11.25;5.50;;;21.30;80.50;;;;;;5058418;28;20084;-73
2023/09/26 12:10:01;;;;;;;9.27;4.90;;;21.40;79.80;;;;;;5041586;28;20037;-73
2023/09/26 12:12:29;;;;;;;7.78;4.88;;;21.40;79.20;;;;;;5057988;28;20052;-73
2023/09/26 12:15:18;;;;;;;7.07;5.00;;;21.50;79.30;;;;;;5075670;28;20029;-73
2023/09/26 12:17:44;;;;;;;6.35;4.70;;;21.50;78.50;;;;;;5058157;28;20025;-74
2023/09/26 12:20:10;;;;;;;6.88;4.95;;;21.40;78.20;;;;;;5057905;28;20021;-74
2023/09/26 12:22:36;;;;;;;7.70;4.85;;;21.40;78.20;;;;;;5058027;28;20032;-74
2023/09/26 12:25:03;;;;;;;10.07;4.85;;;21.50;78.50;;;;;;5075489;28;20515;-74
2023/09/26 12:27:28;;;;;;;6.40;5.10;;;21.60;78.60;;;;;;5041452;28;20044;-75
2023/09/26 12:29:54;;;;;;;7.57;4.53;;;21.60;79.00;;;;;;5075337;28;20036;-75
2023/09/26 12:32:19;;;;;;;6.47;5.00;;;21.70;78.90;;;;;;5057884;28;20033;-75
2023/09/26 12:34:45;;;;;;;9.63;4.50;;;21.80;79.30;;;;;;5041071;28;20025;-74
2023/09/26 12:37:11;;;;;;;7.15;4.05;;;21.90;79.00;;;;;;5075410;28;20021;-73
2023/09/26 12:39:36;;;;;;;7.97;4.82;;;22.00;77.10;;;;;;5075181;28;20059;-73
2023/09/26 12:42:03;;;;;;;6.05;3.90;;;22.00;77.70;;;;;;5057588;28;20029;-74
2023/09/26 12:44:28;;;;;;;7.78;4.53;;;22.00;77.80;;;;;;5057657;28;20036;-74